MSC Fabiola — A8VL5 — position and weather

sailwx.info

Track history (hours):
 
Tides and Currents Weather Stations Pressure Air Temp Water Temp Dewpoint Dewpoint Depression Visibility Wind Speed Wind Dir Waves Ship Positions

MSC Fabiola

Last reported at 2015-Feb-28 17:33 UTC. Time now 2015-Feb-28 20:49 UTC.
Position N 01°16' E 103°45'.

Length 366 m; draft 12.7 m.

Type: Ship. MMSI: 636092019.

Date/timePositionNaut miles runAvg speedWind from/ knotsBaromVisibWave heightAir tempDewpointWater temp
2015-Feb-28 17:33N 01°16' E 103°45'3 2.6
2015-Feb-28 16:33N 01°14' E 103°47'0 0.0
2015-Feb-28 15:32N 01°14' E 103°47'0 0.0
2015-Feb-28 14:14N 01°14' E 103°47'0 0.1
2015-Feb-28 13:32N 01°14' E 103°47'0 0.1
2015-Feb-28 12:14N 01°14' E 103°47'1 1.2
2015-Feb-28 11:33N 01°15' E 103°46'7 6.2
2015-Feb-28 10:30N 01°12' E 103°40'63 9.0
2015-Feb-28 03:31N 01°39' E 102°43'1817.3
2015-Feb-28 02:29N 01°46' E 102°27'  
Track history (hours):
 
Tides and Currents Weather Stations Pressure Air Temp Water Temp Dewpoint Dewpoint Depression Visibility Wind Speed Wind Dir Waves Ship Positions

MSC Fabiola

Last reported at 2015-Feb-28 17:33 UTC. Time now 2015-Feb-28 20:49 UTC.
Position N 01°16' E 103°45'.

Length 366 m; draft 12.7 m.

Type: Ship. MMSI: 636092019.

Date/timePositionNaut miles runAvg speedWind from/ knotsBaromVisibWave heightAir tempDewpointWater temp
2015-Feb-28 17:33N 01°16' E 103°45'3 2.6
2015-Feb-28 16:33N 01°14' E 103°47'0 0.0
2015-Feb-28 15:32N 01°14' E 103°47'0 0.0
2015-Feb-28 14:14N 01°14' E 103°47'0 0.1
2015-Feb-28 13:32N 01°14' E 103°47'0 0.1
2015-Feb-28 12:14N 01°14' E 103°47'1 1.2
2015-Feb-28 11:33N 01°15' E 103°46'7 6.2
2015-Feb-28 10:30N 01°12' E 103°40'63 9.0
2015-Feb-28 03:31N 01°39' E 102°43'1817.3
2015-Feb-28 02:29N 01°46' E 102°27'  

Dump ship's entire track history